createdAt,value
2017-06-09T00:01:43.539Z,1011.16
2017-06-09T00:02:43.560Z,1011.19
2017-06-09T00:03:43.583Z,1011.2
2017-06-09T00:04:43.609Z,1011.17
2017-06-09T00:05:43.633Z,1011.16
2017-06-09T00:06:43.655Z,1011.18
2017-06-09T00:07:43.680Z,1011.18
2017-06-09T00:08:43.704Z,1011.18
2017-06-09T00:09:43.729Z,1011.18
2017-06-09T00:10:43.753Z,1011.19
2017-06-09T00:11:43.777Z,1011.18
2017-06-09T00:12:43.801Z,1011.16
2017-06-09T00:13:43.826Z,1011.17
2017-06-09T00:14:43.849Z,1011.21
2017-06-09T00:16:43.899Z,1011.17
2017-06-09T00:17:43.922Z,1011.14
2017-06-09T00:18:43.947Z,1011.16
2017-06-09T00:19:43.971Z,1011.11
2017-06-09T00:20:43.996Z,1011.08
2017-06-09T00:21:44.019Z,1011.1
2017-06-09T00:22:44.043Z,1011.07
2017-06-09T00:23:44.068Z,1011.07
2017-06-09T00:24:44.091Z,1011.08
2017-06-09T00:25:44.166Z,1011.06
2017-06-09T00:26:44.140Z,1011.02
2017-06-09T00:27:44.165Z,1011
2017-06-09T00:28:44.188Z,1011.02
2017-06-09T00:29:44.212Z,1011.05
2017-06-09T00:30:44.237Z,1011.02
2017-06-09T00:31:44.261Z,1011.01
2017-06-09T00:32:44.284Z,1011
2017-06-09T00:33:44.309Z,1011.02
2017-06-09T00:34:44.333Z,1011
2017-06-09T00:35:44.357Z,1011
2017-06-09T00:36:44.381Z,1011.01
2017-06-09T00:37:44.405Z,1011.03
2017-06-09T00:38:44.430Z,1011.03
2017-06-09T00:39:44.453Z,1011
2017-06-09T00:40:44.478Z,1011.02
2017-06-09T00:41:44.502Z,1011.01
2017-06-09T00:42:44.527Z,1010.99
2017-06-09T00:43:44.550Z,1010.98
2017-06-09T00:44:44.574Z,1010.98
2017-06-09T00:45:44.598Z,1010.97
2017-06-09T00:46:44.622Z,1010.95
2017-06-09T00:48:44.670Z,1010.96
2017-06-09T00:49:44.694Z,1010.92
2017-06-09T00:50:44.718Z,1010.91
2017-06-09T00:51:44.743Z,1010.93
2017-06-09T00:52:44.767Z,1010.9
2017-06-09T00:53:44.791Z,1010.91
2017-06-09T00:54:44.815Z,1010.9
2017-06-09T00:55:44.839Z,1010.91
2017-06-09T00:56:44.863Z,1010.85
2017-06-09T00:57:44.887Z,1010.86
2017-06-09T00:58:44.910Z,1010.87
2017-06-09T00:59:44.935Z,1010.84
2017-06-09T01:00:44.960Z,1010.83
2017-06-09T01:01:44.983Z,1010.83
2017-06-09T01:02:45.007Z,1010.82
2017-06-09T01:04:45.055Z,1010.81
2017-06-09T01:05:45.078Z,1010.81
2017-06-09T01:06:45.102Z,1010.76
2017-06-09T01:07:45.127Z,1010.76
2017-06-09T01:08:45.150Z,1010.73
2017-06-09T01:09:45.175Z,1010.7
2017-06-09T01:10:45.198Z,1010.72
2017-06-09T01:11:45.223Z,1010.67
2017-06-09T01:12:45.246Z,1010.66
2017-06-09T01:13:45.269Z,1010.64
2017-06-09T01:14:45.294Z,1010.63
2017-06-09T01:15:45.319Z,1010.6
2017-06-09T01:16:45.341Z,1010.55
2017-06-09T01:17:45.368Z,1010.58
2017-06-09T01:18:45.390Z,1010.54
2017-06-09T01:20:45.437Z,1010.53
2017-06-09T01:21:45.461Z,1010.52
2017-06-09T01:22:45.486Z,1010.58
2017-06-09T01:23:45.509Z,1010.56
2017-06-09T01:24:45.531Z,1010.5
2017-06-09T01:25:45.556Z,1010.54
2017-06-09T01:26:45.580Z,1010.5
2017-06-09T01:27:45.603Z,1010.48
2017-06-09T01:28:45.627Z,1010.46
2017-06-09T01:29:45.652Z,1010.43
2017-06-09T01:30:45.675Z,1010.41
2017-06-09T01:31:45.699Z,1010.46
2017-06-09T01:32:45.723Z,1010.43
2017-06-09T01:33:45.747Z,1010.38
2017-06-09T01:34:45.770Z,1010.42
2017-06-09T01:36:45.818Z,1010.38
2017-06-09T01:37:45.842Z,1010.37
2017-06-09T01:38:45.865Z,1010.32
2017-06-09T01:39:45.889Z,1010.32
2017-06-09T01:40:45.913Z,1010.34
2017-06-09T01:41:45.936Z,1010.29
2017-06-09T01:42:45.960Z,1010.29
2017-06-09T01:43:45.984Z,1010.26
2017-06-09T01:44:46.008Z,1010.23
2017-06-09T01:45:46.031Z,1010.21
2017-06-09T01:46:46.055Z,1010.17
2017-06-09T01:47:46.080Z,1010.2
2017-06-09T01:48:46.103Z,1010.17
2017-06-09T01:49:46.127Z,1010.17
2017-06-09T01:51:46.175Z,1010.14
2017-06-09T01:52:46.197Z,1010.15
2017-06-09T01:53:46.222Z,1010.13
2017-06-09T01:54:46.245Z,1010.08
2017-06-09T01:55:46.269Z,1010.11
2017-06-09T01:56:46.292Z,1010.12
2017-06-09T01:57:46.316Z,1010.13
2017-06-09T01:58:46.340Z,1010.1
2017-06-09T01:59:46.363Z,1010.13
2017-06-09T02:00:46.387Z,1010.09
2017-06-09T02:01:46.411Z,1010.03
2017-06-09T02:02:46.435Z,1010.07
2017-06-09T02:03:46.458Z,1010.01
2017-06-09T02:04:46.481Z,1010.06
2017-06-09T02:05:46.505Z,1010.08
2017-06-09T02:06:46.529Z,1010.06
2017-06-09T02:07:46.552Z,1010.09
2017-06-09T02:08:46.576Z,1010.07
2017-06-09T02:09:46.599Z,1010.07
2017-06-09T02:10:46.622Z,1010.07
2017-06-09T02:11:46.646Z,1010.07
2017-06-09T02:12:46.670Z,1010.04
2017-06-09T02:13:46.695Z,1010
2017-06-09T02:14:46.718Z,1010
2017-06-09T02:15:46.739Z,1009.95
2017-06-09T02:16:46.764Z,1010
2017-06-09T02:17:46.788Z,1009.99
2017-06-09T02:18:46.811Z,1009.92
2017-06-09T02:19:46.834Z,1009.98
2017-06-09T02:20:46.858Z,1009.98
2017-06-09T02:21:46.881Z,1009.98
2017-06-09T02:23:46.929Z,1009.96
2017-06-09T02:24:46.953Z,1009.98
2017-06-09T02:25:46.975Z,1009.95
2017-06-09T02:26:46.999Z,1009.95
2017-06-09T02:27:47.023Z,1009.95
2017-06-09T02:28:47.046Z,1009.93
2017-06-09T02:29:47.069Z,1009.96
2017-06-09T02:30:47.093Z,1009.93
2017-06-09T02:31:47.122Z,1009.93
2017-06-09T02:32:47.139Z,1009.91
2017-06-09T02:33:47.163Z,1009.97
2017-06-09T02:34:47.187Z,1009.95
2017-06-09T02:35:47.224Z,1009.92
2017-06-09T02:36:47.233Z,1009.93
2017-06-09T02:37:47.257Z,1009.96
2017-06-09T02:39:47.304Z,1009.92
2017-06-09T02:40:47.327Z,1009.94
2017-06-09T02:41:47.350Z,1009.95
2017-06-09T02:42:47.374Z,1009.93
2017-06-09T02:43:47.397Z,1010
2017-06-09T02:44:47.420Z,1009.95
2017-06-09T02:45:47.443Z,1009.91
2017-06-09T02:46:47.468Z,1009.89
2017-06-09T02:47:47.490Z,1009.91
2017-06-09T02:48:47.514Z,1009.9
2017-06-09T02:49:47.539Z,1009.92
2017-06-09T02:50:47.561Z,1009.89
2017-06-09T02:51:47.584Z,1009.92
2017-06-09T02:52:47.609Z,1009.94
2017-06-09T02:53:47.631Z,1009.94
2017-06-09T02:55:47.677Z,1009.91
2017-06-09T02:56:47.700Z,1009.92
2017-06-09T02:57:47.725Z,1009.9
2017-06-09T02:58:47.747Z,1009.92
2017-06-09T02:59:47.771Z,1009.91
2017-06-09T03:00:47.794Z,1009.91
2017-06-09T03:01:47.818Z,1009.94
2017-06-09T03:02:47.841Z,1009.93
2017-06-09T03:03:47.864Z,1009.96
2017-06-09T03:04:47.887Z,1009.93
2017-06-09T03:05:47.910Z,1009.93
2017-06-09T03:06:47.933Z,1009.92
2017-06-09T03:07:47.961Z,1009.9
2017-06-09T03:08:47.981Z,1009.92
2017-06-09T03:09:48.003Z,1009.91
2017-06-09T03:11:48.050Z,1009.91
2017-06-09T03:12:48.073Z,1009.95
2017-06-09T03:13:48.097Z,1009.98
2017-06-09T03:14:48.121Z,1010.02
2017-06-09T03:15:48.144Z,1009.97
2017-06-09T03:16:48.167Z,1009.99
2017-06-09T03:17:48.190Z,1010.02
2017-06-09T03:18:48.214Z,1010.07
2017-06-09T03:19:48.241Z,1010.07
2017-06-09T03:20:48.260Z,1010.08
2017-06-09T03:21:48.284Z,1010.11
2017-06-09T03:22:48.308Z,1010.08
2017-06-09T03:23:48.331Z,1010.13
2017-06-09T03:24:48.355Z,1010.11
2017-06-09T03:26:48.402Z,1010.17
2017-06-09T03:27:48.425Z,1010.15
2017-06-09T03:28:48.448Z,1010.2
2017-06-09T03:29:48.472Z,1010.21
2017-06-09T03:30:48.496Z,1010.22
2017-06-09T03:31:48.519Z,1010.24
2017-06-09T03:32:48.542Z,1010.25
2017-06-09T03:33:48.566Z,1010.24
2017-06-09T03:34:48.589Z,1010.22
2017-06-09T03:35:48.613Z,1010.25
2017-06-09T03:36:48.637Z,1010.26
2017-06-09T03:37:48.661Z,1010.25
2017-06-09T03:38:48.683Z,1010.21
2017-06-09T03:39:48.707Z,1010.23
2017-06-09T03:40:48.731Z,1010.22
2017-06-09T03:41:48.755Z,1010.24
2017-06-09T03:42:48.778Z,1010.28
2017-06-09T03:43:48.802Z,1010.31
2017-06-09T03:44:48.825Z,1010.33
2017-06-09T03:45:48.848Z,1010.31
2017-06-09T03:46:48.872Z,1010.26
2017-06-09T03:47:48.896Z,1010.26
2017-06-09T03:48:48.921Z,1010.26
2017-06-09T03:49:48.944Z,1010.22
2017-06-09T03:50:48.971Z,1010.21
2017-06-09T03:51:48.992Z,1010.19
2017-06-09T03:52:49.015Z,1010.13
2017-06-09T03:53:49.038Z,1010.18
2017-06-09T03:54:49.062Z,1010.11
2017-06-09T03:55:49.086Z,1010.14
2017-06-09T03:56:49.160Z,1010.1
2017-06-09T03:58:49.158Z,1010.22
2017-06-09T03:59:49.182Z,1010.24
2017-06-09T04:00:49.205Z,1010.25
2017-06-09T04:01:49.229Z,1010.21
2017-06-09T04:02:49.253Z,1010.22
2017-06-09T04:03:49.277Z,1010.22
2017-06-09T04:04:49.300Z,1010.24
2017-06-09T04:05:49.325Z,1010.27
2017-06-09T04:06:49.348Z,1010.32
2017-06-09T04:07:49.371Z,1010.33
2017-06-09T04:08:49.396Z,1010.38
2017-06-09T04:09:49.420Z,1010.47
2017-06-09T04:10:49.445Z,1010.56
2017-06-09T04:11:49.468Z,1010.6
2017-06-09T04:12:49.491Z,1010.59
2017-06-09T04:14:49.541Z,1010.59
2017-06-09T04:15:49.565Z,1010.66
2017-06-09T04:16:49.590Z,1010.68
2017-06-09T04:17:49.615Z,1010.71
2017-06-09T04:18:49.640Z,1010.79
2017-06-09T04:19:49.665Z,1010.78
2017-06-09T04:20:49.691Z,1010.83
2017-06-09T04:21:49.718Z,1010.89
2017-06-09T04:22:49.743Z,1010.93
2017-06-09T04:23:49.770Z,1010.92
2017-06-09T04:24:49.797Z,1010.94
2017-06-09T04:25:49.824Z,1010.95
2017-06-09T04:26:49.849Z,1011.04
2017-06-09T04:27:49.878Z,1011.01
2017-06-09T04:28:49.906Z,1010.98
2017-06-09T04:30:49.962Z,1011.05
2017-06-09T04:31:49.991Z,1011.04
2017-06-09T04:32:50.020Z,1011.07
2017-06-09T04:33:50.047Z,1011.07
2017-06-09T04:34:50.077Z,1011.08
2017-06-09T04:35:50.106Z,1010.95
2017-06-09T04:36:50.137Z,1010.94
2017-06-09T04:37:50.166Z,1011.02
2017-06-09T04:38:50.197Z,1011.02
2017-06-09T04:39:50.226Z,1011
2017-06-09T04:40:50.256Z,1011.02
2017-06-09T04:41:50.287Z,1011.01
2017-06-09T04:42:50.317Z,1010.91
2017-06-09T04:43:50.349Z,1010.93
2017-06-09T04:44:50.379Z,1010.97
2017-06-09T04:46:50.442Z,1010.92
2017-06-09T04:47:50.475Z,1010.93
2017-06-09T04:48:50.506Z,1010.89
2017-06-09T04:49:50.538Z,1010.87
2017-06-09T04:50:50.570Z,1010.84
2017-06-09T04:51:50.603Z,1010.75
2017-06-09T04:52:50.636Z,1010.64
2017-06-09T04:53:50.669Z,1010.6
2017-06-09T04:54:50.702Z,1010.63
2017-06-09T04:55:50.734Z,1010.59
2017-06-09T04:56:50.768Z,1010.54
2017-06-09T04:57:50.801Z,1010.55
2017-06-09T04:58:50.834Z,1010.56
2017-06-09T04:59:50.872Z,1010.62
2017-06-09T05:01:50.937Z,1010.55
2017-06-09T05:02:50.969Z,1010.55
2017-06-09T05:03:51.003Z,1010.56
2017-06-09T05:04:51.037Z,1010.54
2017-06-09T05:05:51.072Z,1010.55
2017-06-09T05:06:51.105Z,1010.53
2017-06-09T05:07:51.139Z,1010.59
2017-06-09T05:08:51.174Z,1010.63
2017-06-09T05:09:51.207Z,1010.59
2017-06-09T05:10:51.241Z,1010.57
2017-06-09T05:11:51.277Z,1010.56
2017-06-09T05:12:51.312Z,1010.54
2017-06-09T05:13:51.346Z,1010.51
2017-06-09T05:14:51.382Z,1010.51
2017-06-09T05:15:51.416Z,1010.53
2017-06-09T05:16:51.452Z,1010.53
2017-06-09T05:17:51.486Z,1010.53
2017-06-09T05:18:51.523Z,1010.54
2017-06-09T05:19:51.558Z,1010.6
2017-06-09T05:20:51.592Z,1010.6
2017-06-09T05:21:51.628Z,1010.61
2017-06-09T05:22:51.664Z,1010.63
2017-06-09T05:23:51.700Z,1010.64
2017-06-09T05:24:51.734Z,1010.64
2017-06-09T05:25:51.770Z,1010.65
2017-06-09T05:26:51.807Z,1010.6
2017-06-09T05:27:51.843Z,1010.64
2017-06-09T05:28:51.877Z,1010.66
2017-06-09T05:29:51.914Z,1010.7
2017-06-09T05:30:51.950Z,1010.74
2017-06-09T05:31:51.985Z,1010.72
2017-06-09T05:33:52.058Z,1010.64
2017-06-09T05:34:52.095Z,1010.69
2017-06-09T05:35:52.161Z,1010.71
2017-06-09T05:36:52.166Z,1010.71
2017-06-09T05:37:52.202Z,1010.72
2017-06-09T05:38:52.239Z,1010.74
2017-06-09T05:39:52.274Z,1010.75
2017-06-09T05:40:52.311Z,1010.73
2017-06-09T05:41:52.347Z,1010.77
2017-06-09T05:42:52.382Z,1010.77
2017-06-09T05:43:52.419Z,1010.75
2017-06-09T05:44:52.455Z,1010.76
2017-06-09T05:45:52.491Z,1010.76
2017-06-09T05:46:52.527Z,1010.75
2017-06-09T05:47:52.564Z,1010.7
2017-06-09T05:49:52.637Z,1010.82
2017-06-09T05:50:52.673Z,1010.85
2017-06-09T05:51:52.709Z,1010.88
2017-06-09T05:52:52.745Z,1010.91
2017-06-09T05:53:52.781Z,1010.87
2017-06-09T05:54:52.817Z,1010.93
2017-06-09T05:55:52.854Z,1010.9
2017-06-09T05:56:52.891Z,1010.93
2017-06-09T05:57:52.927Z,1010.94
2017-06-09T05:58:52.964Z,1010.9
2017-06-09T05:59:53.051Z,1010.91
2017-06-09T06:00:53.038Z,1010.9
2017-06-09T06:01:53.074Z,1010.9
2017-06-09T06:02:53.111Z,1010.88
2017-06-09T06:03:53.149Z,1010.93
2017-06-09T06:05:53.222Z,1010.89
2017-06-09T06:06:53.259Z,1010.79
2017-06-09T06:07:53.297Z,1010.78
2017-06-09T06:08:53.333Z,1010.81
2017-06-09T06:09:53.371Z,1010.75
2017-06-09T06:10:53.409Z,1010.75
2017-06-09T06:11:53.448Z,1010.7
2017-06-09T06:12:53.483Z,1010.73
2017-06-09T06:13:53.521Z,1010.79
2017-06-09T06:14:53.559Z,1010.86
2017-06-09T06:15:53.596Z,1010.93
2017-06-09T06:16:53.634Z,1010.93
2017-06-09T06:17:53.671Z,1010.92
2017-06-09T06:18:53.709Z,1010.91
2017-06-09T06:19:53.746Z,1010.96
2017-06-09T06:21:53.822Z,1011.01
2017-06-09T06:22:53.861Z,1010.99
2017-06-09T06:23:53.897Z,1011.02
2017-06-09T06:24:53.935Z,1011.04
2017-06-09T06:25:53.975Z,1011.09
2017-06-09T06:26:54.011Z,1011.17
2017-06-09T06:27:54.049Z,1011.25
2017-06-09T06:28:54.090Z,1011.28
2017-06-09T06:29:54.130Z,1011.28
2017-06-09T06:30:54.164Z,1011.39
2017-06-09T06:31:54.203Z,1011.41
2017-06-09T06:32:54.241Z,1011.45
2017-06-09T06:33:54.281Z,1011.44
2017-06-09T06:34:54.318Z,1011.48
2017-06-09T06:36:54.397Z,1011.43
2017-06-09T06:37:54.435Z,1011.4
2017-06-09T06:38:54.474Z,1011.39
2017-06-09T06:39:54.513Z,1011.41
2017-06-09T06:40:54.552Z,1011.29
2017-06-09T06:41:54.590Z,1011.32
2017-06-09T06:42:54.630Z,1011.34
2017-06-09T06:43:54.669Z,1011.32
2017-06-09T06:44:54.707Z,1011.3
2017-06-09T06:45:54.747Z,1011.29
2017-06-09T06:46:54.787Z,1011.22
2017-06-09T06:47:54.825Z,1011.13
2017-06-09T06:48:54.864Z,1011.09
2017-06-09T06:49:54.906Z,1011.1
2017-06-09T06:50:54.942Z,1011.09
2017-06-09T06:51:54.982Z,1011.07
2017-06-09T06:52:55.019Z,1011.1
2017-06-09T06:53:55.058Z,1011.15
2017-06-09T06:54:55.098Z,1011.13
2017-06-09T06:55:55.137Z,1011
2017-06-09T06:56:55.175Z,1011.02
2017-06-09T06:57:55.213Z,1010.95
2017-06-09T06:58:55.253Z,1010.93
2017-06-09T06:59:55.290Z,1010.89
2017-06-09T07:00:55.333Z,1010.92
2017-06-09T07:01:55.408Z,1010.92
2017-06-09T07:02:55.405Z,1010.99
2017-06-09T07:03:55.443Z,1011.08
2017-06-09T07:04:55.481Z,1011.02
2017-06-09T07:05:55.520Z,1011.12
2017-06-09T07:06:55.556Z,1010.95
2017-06-09T07:08:55.632Z,1010.84
2017-06-09T07:09:55.670Z,1011.11
2017-06-09T07:10:55.707Z,1011.29
2017-06-09T07:11:55.744Z,1011.35
2017-06-09T07:12:55.783Z,1011.43
2017-06-09T07:13:55.820Z,1011.42
2017-06-09T07:14:55.857Z,1011.5
2017-06-09T07:15:55.896Z,1011.43
2017-06-09T07:16:55.932Z,1011.29
2017-06-09T07:17:55.970Z,1011.26
2017-06-09T07:18:56.006Z,1011.25
2017-06-09T07:19:56.043Z,1011.2
2017-06-09T07:20:56.082Z,1011.17
2017-06-09T07:21:56.118Z,1011.14
2017-06-09T07:22:56.156Z,1011.02
2017-06-09T07:24:56.232Z,1011.45
2017-06-09T07:25:56.268Z,1011.59
2017-06-09T07:26:56.356Z,1011.45
2017-06-09T07:27:56.343Z,1011.72
2017-06-09T07:28:56.379Z,1011.87
2017-06-09T07:29:56.418Z,1011.85
2017-06-09T07:30:56.454Z,1011.89
2017-06-09T07:31:56.492Z,1011.84
2017-06-09T07:32:56.528Z,1011.69
2017-06-09T07:33:56.565Z,1011.64
2017-06-09T07:34:56.603Z,1011.57
2017-06-09T07:35:56.641Z,1010.84
2017-06-09T07:36:56.677Z,1010.62
2017-06-09T07:37:56.715Z,1010.58
2017-06-09T07:38:56.753Z,1010.58
2017-06-09T07:40:56.828Z,1010.46
2017-06-09T07:41:56.865Z,1010.48
2017-06-09T07:42:56.902Z,1010.5
2017-06-09T07:43:56.940Z,1010.47
2017-06-09T07:44:56.978Z,1010.47
2017-06-09T07:45:57.016Z,1010.47
2017-06-09T07:46:57.054Z,1010.43
2017-06-09T07:47:57.092Z,1010.41
2017-06-09T07:48:57.129Z,1010.4
2017-06-09T07:49:57.167Z,1010.36
2017-06-09T07:50:57.203Z,1010.33
2017-06-09T07:51:57.242Z,1010.3
2017-06-09T07:52:57.280Z,1010.27
2017-06-09T07:53:57.318Z,1010.22
2017-06-09T07:54:57.354Z,1010.16
2017-06-09T07:56:57.432Z,1010.08
2017-06-09T07:57:57.470Z,1010.08
2017-06-09T07:58:57.507Z,1010.07
2017-06-09T07:59:57.547Z,1010.11
2017-06-09T08:00:57.584Z,1010.23
2017-06-09T08:01:57.622Z,1010.28
2017-06-09T08:02:57.660Z,1010.17
2017-06-09T08:03:57.698Z,1010.25
2017-06-09T08:04:57.772Z,1010.27
2017-06-09T08:05:57.773Z,1010.24
2017-06-09T08:06:57.811Z,1010.26
2017-06-09T08:07:57.849Z,1010.23
2017-06-09T08:08:57.886Z,1010.27
2017-06-09T08:09:57.925Z,1010.23
2017-06-09T08:11:58.001Z,1010.24
2017-06-09T08:12:58.037Z,1010.25
2017-06-09T08:13:58.075Z,1010.22
2017-06-09T08:14:58.113Z,1010.25
2017-06-09T08:15:58.151Z,1010.22
2017-06-09T08:16:58.189Z,1010.24
2017-06-09T08:17:58.226Z,1010.21
2017-06-09T08:18:58.266Z,1010.22
2017-06-09T08:19:58.301Z,1010.17
2017-06-09T08:20:58.339Z,1010.17
2017-06-09T08:21:58.378Z,1010.13
2017-06-09T08:22:58.415Z,1010.12
2017-06-09T08:23:58.453Z,1010.06
2017-06-09T08:24:58.490Z,1010.06
2017-06-09T08:25:58.527Z,1010.06
2017-06-09T08:26:58.565Z,1010.02
2017-06-09T08:27:58.602Z,1010.11
2017-06-09T08:28:58.640Z,1010.07
2017-06-09T08:29:58.677Z,1010.01
2017-06-09T08:30:58.714Z,1009.96
2017-06-09T08:31:58.752Z,1009.91
2017-06-09T08:32:58.789Z,1009.91
2017-06-09T08:33:58.827Z,1009.85
2017-06-09T08:34:58.864Z,1009.91
2017-06-09T08:35:58.902Z,1009.96
2017-06-09T08:36:58.939Z,1009.98
2017-06-09T08:37:58.977Z,1010.1
2017-06-09T08:38:59.014Z,1010.02
2017-06-09T08:39:59.052Z,1009.99
2017-06-09T08:40:59.089Z,1009.98
2017-06-09T08:41:59.126Z,1010.02
2017-06-09T08:43:59.201Z,1009.93
2017-06-09T08:44:59.238Z,1009.94
2017-06-09T08:45:59.275Z,1009.88
2017-06-09T08:46:59.312Z,1009.86
2017-06-09T08:47:59.350Z,1009.83
2017-06-09T08:48:59.387Z,1009.69
2017-06-09T08:49:59.423Z,1009.53
2017-06-09T08:50:59.461Z,1009.53
2017-06-09T08:51:59.499Z,1009.56
2017-06-09T08:52:59.534Z,1009.49
2017-06-09T08:53:59.572Z,1009.48
2017-06-09T08:54:59.610Z,1009.47
2017-06-09T08:55:59.646Z,1009.49
2017-06-09T08:56:59.683Z,1009.45
2017-06-09T08:57:59.720Z,1009.43
2017-06-09T08:59:59.794Z,1009.44
2017-06-09T09:00:59.832Z,1009.41
2017-06-09T09:01:59.868Z,1009.39
2017-06-09T09:02:59.905Z,1009.38
2017-06-09T09:03:59.942Z,1009.34
2017-06-09T09:04:59.979Z,1009.37
2017-06-09T09:06:00.015Z,1009.31
2017-06-09T09:07:00.054Z,1009.3
2017-06-09T09:08:00.089Z,1009.32
2017-06-09T09:09:00.126Z,1009.38
2017-06-09T09:10:00.162Z,1009.36
2017-06-09T09:11:00.200Z,1009.35
2017-06-09T09:12:00.237Z,1009.32
2017-06-09T09:13:00.278Z,1009.31
2017-06-09T09:14:00.309Z,1009.32
2017-06-09T09:16:00.382Z,1009.38
2017-06-09T09:17:00.419Z,1009.33
2017-06-09T09:18:00.456Z,1009.33
2017-06-09T09:19:00.492Z,1009.35
2017-06-09T09:20:00.528Z,1009.34
2017-06-09T09:21:00.566Z,1009.33
2017-06-09T09:22:00.601Z,1009.25
2017-06-09T09:23:00.673Z,1009.25
2017-06-09T09:24:00.675Z,1009.23
2017-06-09T09:25:00.710Z,1009.22
2017-06-09T09:26:00.746Z,1009.23
2017-06-09T09:27:00.782Z,1009.22
2017-06-09T09:28:00.819Z,1009.15
2017-06-09T09:29:00.855Z,1009.25
2017-06-09T09:30:00.891Z,1009.22
2017-06-09T09:32:00.964Z,1009.23
2017-06-09T09:33:01.000Z,1009.19
2017-06-09T09:34:01.085Z,1009.19
2017-06-09T09:35:01.072Z,1009.21
2017-06-09T09:36:01.109Z,1009.28
2017-06-09T09:37:01.143Z,1009.22
2017-06-09T09:38:01.180Z,1009.18
2017-06-09T09:39:01.217Z,1009.16
2017-06-09T09:40:01.252Z,1009.15
2017-06-09T09:41:01.287Z,1009.14
2017-06-09T09:42:01.374Z,1009.14
2017-06-09T09:43:01.360Z,1009.13
2017-06-09T09:44:01.397Z,1009.13
2017-06-09T09:45:01.432Z,1009.12
2017-06-09T09:47:01.505Z,1009.12
2017-06-09T09:48:01.540Z,1009.03
2017-06-09T09:49:01.576Z,1009.09
2017-06-09T09:50:01.612Z,1009.03
2017-06-09T09:51:01.649Z,1009
2017-06-09T09:52:01.683Z,1008.97
2017-06-09T09:53:01.719Z,1008.92
2017-06-09T09:54:01.755Z,1008.95
2017-06-09T09:55:01.791Z,1008.84
2017-06-09T09:56:01.826Z,1008.85
2017-06-09T09:57:01.862Z,1008.9
2017-06-09T09:58:01.898Z,1008.84
2017-06-09T09:59:01.933Z,1008.88
2017-06-09T10:00:01.968Z,1008.9
2017-06-09T10:01:02.004Z,1008.86
2017-06-09T10:02:02.040Z,1008.82
2017-06-09T10:03:02.075Z,1008.8
2017-06-09T10:04:02.111Z,1008.78
2017-06-09T10:05:02.146Z,1008.81
2017-06-09T10:06:02.180Z,1008.74
2017-06-09T10:07:02.216Z,1008.79
2017-06-09T10:08:02.252Z,1008.69
2017-06-09T10:09:02.287Z,1008.7
2017-06-09T10:10:02.322Z,1008.66
2017-06-09T10:11:02.356Z,1008.67
2017-06-09T10:12:02.393Z,1008.67
2017-06-09T10:13:02.428Z,1008.67
2017-06-09T10:14:02.463Z,1008.64
2017-06-09T10:15:02.501Z,1008.63
2017-06-09T10:16:02.535Z,1008.66
2017-06-09T10:17:02.567Z,1008.62
2017-06-09T10:19:02.638Z,1008.57
2017-06-09T10:20:02.674Z,1008.54
2017-06-09T10:21:02.708Z,1008.61
2017-06-09T10:22:02.743Z,1008.59
2017-06-09T10:23:02.777Z,1008.53
2017-06-09T10:24:02.812Z,1008.48
2017-06-09T10:25:02.846Z,1008.46
2017-06-09T10:26:02.881Z,1008.48
2017-06-09T10:27:02.917Z,1008.4
2017-06-09T10:28:02.951Z,1008.36
2017-06-09T10:29:03.034Z,1008.33
2017-06-09T10:30:03.019Z,1008.26
2017-06-09T10:31:03.055Z,1008.29
2017-06-09T10:32:03.088Z,1008.4
2017-06-09T10:33:03.123Z,1008.35
2017-06-09T10:35:03.193Z,1008.28
2017-06-09T10:36:03.225Z,1008.27
2017-06-09T10:37:03.259Z,1008.27
2017-06-09T10:38:03.294Z,1008.32
2017-06-09T10:39:03.327Z,1008.21
2017-06-09T10:40:03.362Z,1008.14
2017-06-09T10:41:03.396Z,1008.16
2017-06-09T10:42:03.430Z,1008.21
2017-06-09T10:43:03.463Z,1008.21
2017-06-09T10:44:03.497Z,1008.24
2017-06-09T10:45:03.532Z,1008.25
2017-06-09T10:46:03.566Z,1008.23
2017-06-09T10:47:03.599Z,1008.24
2017-06-09T10:48:03.634Z,1008.22
2017-06-09T10:49:03.671Z,1008.17
2017-06-09T10:51:03.734Z,1008.14
2017-06-09T10:52:03.768Z,1008.14
2017-06-09T10:53:03.802Z,1008.16
2017-06-09T10:54:03.835Z,1008.11
2017-06-09T10:55:03.869Z,1008.07
2017-06-09T10:56:03.903Z,1008.08
2017-06-09T10:57:03.936Z,1008.07
2017-06-09T10:58:03.970Z,1008.02
2017-06-09T10:59:04.003Z,1007.97
2017-06-09T11:00:04.038Z,1008.04
2017-06-09T11:01:04.069Z,1007.99
2017-06-09T11:02:04.102Z,1007.95
2017-06-09T11:03:04.136Z,1007.91
2017-06-09T11:04:04.169Z,1007.89
2017-06-09T11:05:04.201Z,1007.85
2017-06-09T11:07:04.269Z,1007.85
2017-06-09T11:08:04.303Z,1007.81
2017-06-09T11:09:04.335Z,1007.82
2017-06-09T11:10:04.369Z,1007.86
2017-06-09T11:11:04.402Z,1007.81
2017-06-09T11:12:04.435Z,1007.84
2017-06-09T11:13:04.467Z,1007.79
2017-06-09T11:14:04.500Z,1007.88
2017-06-09T11:15:04.533Z,1007.82
2017-06-09T11:16:04.566Z,1007.79
2017-06-09T11:17:04.600Z,1007.8
2017-06-09T11:18:04.632Z,1007.8
2017-06-09T11:19:04.665Z,1007.75
2017-06-09T11:20:04.699Z,1007.73
2017-06-09T11:22:04.764Z,1007.72
2017-06-09T11:23:04.847Z,1007.71
2017-06-09T11:24:04.829Z,1007.68
2017-06-09T11:25:04.864Z,1007.64
2017-06-09T11:26:04.896Z,1007.58
2017-06-09T11:27:04.928Z,1007.53
2017-06-09T11:28:04.964Z,1007.56
2017-06-09T11:29:04.994Z,1007.61
2017-06-09T11:30:05.026Z,1007.63
2017-06-09T11:31:05.059Z,1007.57
2017-06-09T11:32:05.094Z,1007.51
2017-06-09T11:33:05.125Z,1007.52
2017-06-09T11:34:05.157Z,1007.5
2017-06-09T11:35:05.190Z,1007.46
2017-06-09T11:36:05.223Z,1007.49
2017-06-09T11:37:05.256Z,1007.54
2017-06-09T11:38:05.288Z,1007.54
2017-06-09T11:39:05.322Z,1007.5
2017-06-09T11:40:05.354Z,1007.48
2017-06-09T11:41:05.386Z,1007.52
2017-06-09T11:42:05.419Z,1007.51
2017-06-09T11:43:05.452Z,1007.49
2017-06-09T11:44:05.535Z,1007.5
2017-06-09T11:45:05.518Z,1007.4
2017-06-09T11:46:05.549Z,1007.41
2017-06-09T11:47:05.583Z,1007.4
2017-06-09T11:48:05.615Z,1007.39
2017-06-09T11:49:05.648Z,1007.44
2017-06-09T11:50:05.680Z,1007.45
2017-06-09T11:51:05.713Z,1007.45
2017-06-09T11:52:05.745Z,1007.38
2017-06-09T11:54:05.810Z,1007.35
2017-06-09T11:55:05.844Z,1007.33
2017-06-09T11:56:05.875Z,1007.38
2017-06-09T11:57:05.908Z,1007.36
2017-06-09T11:58:05.941Z,1007.43
2017-06-09T11:59:05.976Z,1007.41
2017-06-09T12:00:06.006Z,1007.37
2017-06-09T12:01:06.039Z,1007.32
2017-06-09T12:02:06.071Z,1007.29
2017-06-09T12:03:06.103Z,1007.26
2017-06-09T12:04:06.135Z,1007.34
2017-06-09T12:05:06.169Z,1007.23
2017-06-09T12:06:06.201Z,1007.17
2017-06-09T12:07:06.233Z,1007.17
2017-06-09T12:08:06.266Z,1007.16
2017-06-09T12:10:06.331Z,1007.1
2017-06-09T12:11:06.363Z,1007.18
2017-06-09T12:12:06.394Z,1007.15
2017-06-09T12:13:06.427Z,1007.1
2017-06-09T12:14:06.459Z,1007.13
2017-06-09T12:15:06.491Z,1007.1
2017-06-09T12:16:06.523Z,1007.08
2017-06-09T12:17:06.557Z,1007.04
2017-06-09T12:18:06.588Z,1007.03
2017-06-09T12:19:06.621Z,1007.02
2017-06-09T12:20:06.653Z,1006.99
2017-06-09T12:21:06.686Z,1007.01
2017-06-09T12:22:06.717Z,1007.01
2017-06-09T12:23:06.750Z,1007.03
2017-06-09T12:24:06.782Z,1007
2017-06-09T12:26:06.847Z,1007.02
2017-06-09T12:27:06.879Z,1007.01
2017-06-09T12:28:06.912Z,1007
2017-06-09T12:29:06.943Z,1006.98
2017-06-09T12:30:06.976Z,1006.88
2017-06-09T12:31:07.009Z,1006.91
2017-06-09T12:32:07.042Z,1006.96
2017-06-09T12:33:07.073Z,1006.98
2017-06-09T12:34:07.105Z,1006.97
2017-06-09T12:35:07.138Z,1006.93
2017-06-09T12:36:07.169Z,1006.92
2017-06-09T12:37:07.201Z,1006.96
2017-06-09T12:38:07.234Z,1006.96
2017-06-09T12:39:07.267Z,1006.96
2017-06-09T12:40:07.297Z,1006.93
2017-06-09T12:42:07.364Z,1006.88
2017-06-09T12:43:07.396Z,1006.85
2017-06-09T12:44:07.427Z,1006.87
2017-06-09T12:45:07.459Z,1006.87
2017-06-09T12:46:07.492Z,1006.89
2017-06-09T12:47:07.523Z,1006.9
2017-06-09T12:48:07.556Z,1006.87
2017-06-09T12:49:07.588Z,1006.87
2017-06-09T12:50:07.622Z,1006.91